createdAt,value
2022-10-25T00:00:54.138Z,12.70
2022-10-25T00:03:21.061Z,12.80
2022-10-25T00:05:47.943Z,12.80
2022-10-25T00:08:14.890Z,12.80
2022-10-25T00:10:41.706Z,12.80
2022-10-25T00:13:08.543Z,12.80
2022-10-25T00:15:35.435Z,12.80
2022-10-25T00:18:02.379Z,12.80
2022-10-25T00:20:29.280Z,12.70
2022-10-25T00:22:56.120Z,12.70
2022-10-25T00:25:22.980Z,12.60
2022-10-25T00:27:49.852Z,12.60
2022-10-25T00:30:16.828Z,12.70
2022-10-25T00:32:43.788Z,12.60
2022-10-25T00:35:10.883Z,12.60
2022-10-25T00:37:37.836Z,12.50
2022-10-25T00:40:05.628Z,12.50
2022-10-25T00:42:32.510Z,12.60
2022-10-25T00:45:02.504Z,12.70
2022-10-25T00:47:49.121Z,12.70
2022-10-25T00:50:33.268Z,12.70
2022-10-25T00:53:09.410Z,12.70
2022-10-25T00:55:40.067Z,12.80
2022-10-25T00:58:14.676Z,12.80
2022-10-25T01:00:41.753Z,12.80
2022-10-25T01:03:08.916Z,12.80
2022-10-25T01:05:36.506Z,12.80
2022-10-25T01:08:05.317Z,12.90
2022-10-25T01:10:32.752Z,13.00
2022-10-25T01:13:01.879Z,13.00
2022-10-25T01:15:45.511Z,13.00
2022-10-25T01:18:17.640Z,13.10
2022-10-25T01:21:05.466Z,13.10
2022-10-25T01:23:48.646Z,13.10
2022-10-25T01:26:34.218Z,13.10
2022-10-25T01:29:22.786Z,13.10
2022-10-25T01:32:00.968Z,13.10
2022-10-25T01:34:34.596Z,13.10
2022-10-25T01:37:23.199Z,13.10
2022-10-25T01:40:22.162Z,13.20
2022-10-25T01:43:07.944Z,13.20
2022-10-25T01:45:42.055Z,13.20
2022-10-25T01:48:16.980Z,13.20
2022-10-25T01:50:46.751Z,13.20
2022-10-25T01:53:14.487Z,13.30
2022-10-25T01:55:57.990Z,13.30
2022-10-25T01:58:37.371Z,13.30
2022-10-25T02:01:41.090Z,13.30
2022-10-25T02:04:43.476Z,13.30
2022-10-25T02:07:28.245Z,13.30
2022-10-25T02:10:03.952Z,13.30
2022-10-25T02:12:38.340Z,13.30
2022-10-25T02:15:10.326Z,13.30
2022-10-25T02:17:53.460Z,13.30
2022-10-25T02:20:23.106Z,13.30
2022-10-25T02:22:51.640Z,13.30
2022-10-25T02:25:18.707Z,13.30
2022-10-25T02:27:46.940Z,13.40
2022-10-25T02:30:14.134Z,13.30
2022-10-25T02:32:41.115Z,13.40
2022-10-25T02:35:16.021Z,13.30
2022-10-25T02:37:42.943Z,13.40
2022-10-25T02:40:10.839Z,13.40
2022-10-25T02:42:37.674Z,13.40
2022-10-25T02:45:05.100Z,13.40
2022-10-25T02:47:31.909Z,13.40
2022-10-25T02:49:58.884Z,13.40
2022-10-25T02:52:25.741Z,13.40
2022-10-25T02:54:52.601Z,13.40
2022-10-25T02:57:19.435Z,13.50
2022-10-25T02:59:46.351Z,13.50
2022-10-25T03:02:13.744Z,13.50
2022-10-25T03:04:40.643Z,13.50
2022-10-25T03:07:07.504Z,13.50
2022-10-25T03:09:34.385Z,13.50
2022-10-25T03:12:01.240Z,13.50
2022-10-25T03:14:28.193Z,13.50
2022-10-25T03:16:55.082Z,13.50
2022-10-25T03:19:21.940Z,13.60
2022-10-25T03:21:48.809Z,13.60
2022-10-25T03:24:15.823Z,13.60
2022-10-25T03:26:42.674Z,13.60
2022-10-25T03:29:10.888Z,13.60
2022-10-25T03:31:37.761Z,13.60
2022-10-25T03:34:04.619Z,13.60
2022-10-25T03:36:31.481Z,13.60
2022-10-25T03:38:58.387Z,13.60
2022-10-25T03:41:25.239Z,13.60
2022-10-25T03:43:52.104Z,13.60
2022-10-25T03:46:18.943Z,13.60
2022-10-25T03:48:45.770Z,13.70
2022-10-25T03:51:12.623Z,13.70
2022-10-25T03:53:39.518Z,13.70
2022-10-25T03:56:06.891Z,13.70
2022-10-25T03:58:33.839Z,13.70
2022-10-25T04:01:00.797Z,13.70
2022-10-25T04:03:27.728Z,13.70
2022-10-25T04:05:54.611Z,13.70
2022-10-25T04:08:21.451Z,13.70
2022-10-25T04:10:48.330Z,13.70
2022-10-25T04:13:15.284Z,13.70
2022-10-25T04:15:42.119Z,13.70
2022-10-25T04:18:08.989Z,13.70
2022-10-25T04:20:35.936Z,13.70
2022-10-25T04:23:02.770Z,13.60
2022-10-25T04:25:29.754Z,13.70
2022-10-25T04:27:59.219Z,13.70
2022-10-25T04:30:26.285Z,13.70
2022-10-25T04:32:53.124Z,13.60
2022-10-25T04:35:20.344Z,13.60
2022-10-25T04:37:47.207Z,13.50
2022-10-25T04:40:14.064Z,13.40
2022-10-25T04:42:41.094Z,13.40
2022-10-25T04:45:08.443Z,13.40
2022-10-25T04:47:35.491Z,13.40
2022-10-25T04:50:02.398Z,13.30
2022-10-25T04:52:30.280Z,13.30
2022-10-25T04:54:57.621Z,13.20
2022-10-25T04:57:25.577Z,13.20
2022-10-25T04:59:52.794Z,13.20
2022-10-25T05:02:19.716Z,13.20
2022-10-25T05:04:46.725Z,13.20
2022-10-25T05:07:13.571Z,13.20
2022-10-25T05:09:43.851Z,13.20
2022-10-25T05:12:13.508Z,13.20
2022-10-25T05:14:40.459Z,13.30
2022-10-25T05:17:07.349Z,13.30
2022-10-25T05:19:34.225Z,13.30
2022-10-25T05:22:01.099Z,13.30
2022-10-25T05:24:28.125Z,13.30
2022-10-25T05:26:54.958Z,13.40
2022-10-25T05:29:21.868Z,13.40
2022-10-25T05:31:48.848Z,13.40
2022-10-25T05:34:15.865Z,13.40
2022-10-25T05:36:42.784Z,13.40
2022-10-25T05:39:09.592Z,13.40
2022-10-25T05:41:37.283Z,13.40
2022-10-25T05:44:05.752Z,13.40
2022-10-25T05:46:33.366Z,13.40
2022-10-25T05:49:00.453Z,13.40
2022-10-25T05:51:37.307Z,13.40
2022-10-25T05:54:13.567Z,13.40
2022-10-25T05:56:41.578Z,13.40
2022-10-25T05:59:10.999Z,13.30
2022-10-25T06:01:44.083Z,13.30
2022-10-25T06:04:11.687Z,13.40
2022-10-25T06:06:40.005Z,13.40
2022-10-25T06:09:07.628Z,13.40
2022-10-25T06:11:34.574Z,13.50
2022-10-25T06:14:01.776Z,13.50
2022-10-25T06:16:28.956Z,13.50
2022-10-25T06:18:56.114Z,13.50
2022-10-25T06:21:28.155Z,13.50
2022-10-25T06:23:55.994Z,13.50
2022-10-25T06:26:25.210Z,13.60
2022-10-25T06:28:54.563Z,13.60
2022-10-25T06:31:22.020Z,13.60
2022-10-25T06:33:49.060Z,13.70
2022-10-25T06:36:21.168Z,13.70
2022-10-25T06:38:48.704Z,13.70
2022-10-25T06:41:28.029Z,13.70
2022-10-25T06:43:55.362Z,13.60
2022-10-25T06:46:31.764Z,13.60
2022-10-25T06:48:59.763Z,13.60
2022-10-25T06:51:28.826Z,13.50
2022-10-25T06:54:00.592Z,13.50
2022-10-25T06:56:29.064Z,13.40
2022-10-25T06:58:56.165Z,13.40
2022-10-25T07:01:25.294Z,13.50
2022-10-25T07:03:54.199Z,13.50
2022-10-25T07:06:29.709Z,13.50
2022-10-25T07:09:01.257Z,13.60
2022-10-25T07:11:30.615Z,13.60
2022-10-25T07:13:58.662Z,13.70
2022-10-25T07:16:27.114Z,13.70
2022-10-25T07:19:02.010Z,13.70
2022-10-25T07:21:30.606Z,13.80
2022-10-25T07:23:57.987Z,13.80
2022-10-25T07:26:27.676Z,13.90
2022-10-25T07:28:56.773Z,13.90
2022-10-25T07:31:26.672Z,14.10
2022-10-25T07:33:54.908Z,14.10
2022-10-25T07:36:21.772Z,14.10
2022-10-25T07:38:48.885Z,14.10
2022-10-25T07:41:16.027Z,14.10
2022-10-25T07:43:43.146Z,14.10
2022-10-25T07:46:10.348Z,14.10
2022-10-25T07:48:37.323Z,14.10
2022-10-25T07:51:06.412Z,14.20
2022-10-25T07:53:33.335Z,14.20
2022-10-25T07:56:00.326Z,14.10
2022-10-25T07:58:27.163Z,14.20
2022-10-25T08:01:00.927Z,14.20
2022-10-25T08:03:27.895Z,14.30
2022-10-25T08:05:54.869Z,14.30
2022-10-25T08:08:23.253Z,14.30
2022-10-25T08:10:50.257Z,14.20
2022-10-25T08:13:17.112Z,14.20
2022-10-25T08:15:54.973Z,14.20
2022-10-25T08:18:22.802Z,14.30
2022-10-25T08:21:01.771Z,14.30
2022-10-25T08:23:31.593Z,14.30
2022-10-25T08:25:58.942Z,14.30
2022-10-25T08:28:25.944Z,14.40
2022-10-25T08:30:55.904Z,14.50
2022-10-25T08:33:23.852Z,14.50
2022-10-25T08:35:50.709Z,14.50
2022-10-25T08:38:17.614Z,14.40
2022-10-25T08:41:03.314Z,14.40
2022-10-25T08:43:50.593Z,14.40
2022-10-25T08:46:39.747Z,14.60
2022-10-25T08:49:12.378Z,14.70
2022-10-25T08:51:41.927Z,14.70
2022-10-25T08:54:24.805Z,14.60
2022-10-25T08:57:14.691Z,14.50
2022-10-25T08:59:45.252Z,14.40
2022-10-25T09:02:28.189Z,14.40
2022-10-25T09:04:55.202Z,14.40
2022-10-25T09:07:47.441Z,14.30
2022-10-25T09:10:29.105Z,14.40
2022-10-25T09:13:10.917Z,14.40
2022-10-25T09:15:43.099Z,14.40
2022-10-25T09:18:18.036Z,14.60
2022-10-25T09:20:52.352Z,14.60
2022-10-25T09:23:31.242Z,14.70
2022-10-25T09:26:27.661Z,14.60
2022-10-25T09:29:06.933Z,14.60
2022-10-25T09:31:40.407Z,14.80
2022-10-25T09:34:10.476Z,15.20
2022-10-25T09:36:48.825Z,15.30
2022-10-25T09:39:37.348Z,15.40
2022-10-25T09:42:07.582Z,15.40
2022-10-25T09:44:39.744Z,15.40
2022-10-25T09:47:21.591Z,15.30
2022-10-25T09:50:04.698Z,15.20
2022-10-25T09:55:39.524Z,15.00
2022-10-25T09:58:09.540Z,14.90
2022-10-25T10:00:40.532Z,14.90
2022-10-25T10:03:11.388Z,14.90
2022-10-25T10:05:41.293Z,14.90
2022-10-25T10:08:09.517Z,14.80
2022-10-25T10:10:37.501Z,14.90
2022-10-25T10:13:13.998Z,14.90
2022-10-25T10:15:59.798Z,14.90
2022-10-25T10:18:31.890Z,14.90
2022-10-25T10:21:10.599Z,14.90
2022-10-25T10:23:47.914Z,14.90
2022-10-25T10:26:57.264Z,14.90
2022-10-25T10:29:27.423Z,14.80
2022-10-25T10:31:58.963Z,14.80
2022-10-25T10:34:39.129Z,14.80
2022-10-25T10:37:12.438Z,14.80
2022-10-25T10:40:08.595Z,14.90
2022-10-25T10:42:38.791Z,14.90
2022-10-25T10:45:08.730Z,15.00
2022-10-25T10:47:42.752Z,15.10
2022-10-25T10:50:32.093Z,15.20
2022-10-25T10:53:03.932Z,15.30
2022-10-25T10:55:36.582Z,15.30
2022-10-25T10:58:26.479Z,15.50
2022-10-25T11:00:56.373Z,15.50
2022-10-25T11:03:49.186Z,15.70
2022-10-25T11:06:34.879Z,15.80
2022-10-25T11:09:16.160Z,15.90
2022-10-25T11:11:44.088Z,15.80
2022-10-25T11:14:15.970Z,15.90
2022-10-25T11:17:01.421Z,15.90
2022-10-25T11:20:01.997Z,15.80
2022-10-25T11:22:32.908Z,15.70
2022-10-25T11:25:23.829Z,15.70
2022-10-25T11:28:24.346Z,15.50
2022-10-25T11:31:09.872Z,15.40
2022-10-25T11:33:36.918Z,15.50
2022-10-25T11:36:53.233Z,15.60
2022-10-25T11:39:35.346Z,15.60
2022-10-25T11:42:22.432Z,15.60
2022-10-25T11:44:55.398Z,15.60
2022-10-25T11:48:03.564Z,15.60
2022-10-25T11:50:33.504Z,16.00
2022-10-25T11:53:25.859Z,16.20
2022-10-25T11:56:15.983Z,16.20
2022-10-25T11:59:08.782Z,16.00
2022-10-25T12:02:07.857Z,15.90
2022-10-25T12:05:01.350Z,15.80
2022-10-25T12:07:50.691Z,15.80
2022-10-25T12:10:40.736Z,15.70
2022-10-25T12:13:27.411Z,15.70
2022-10-25T12:15:56.504Z,15.80
2022-10-25T12:18:29.830Z,15.70
2022-10-25T12:20:57.443Z,15.70
2022-10-25T12:23:27.644Z,15.70
2022-10-25T12:26:04.970Z,15.60
2022-10-25T12:28:37.925Z,15.70
2022-10-25T12:31:17.074Z,15.70
2022-10-25T12:34:13.393Z,15.90
2022-10-25T12:36:47.262Z,16.10
2022-10-25T12:39:25.457Z,16.40
2022-10-25T12:41:59.344Z,16.70
2022-10-25T12:45:00.373Z,16.80
2022-10-25T12:47:57.652Z,16.60
2022-10-25T12:50:43.074Z,16.40
2022-10-25T12:53:34.773Z,16.30
2022-10-25T12:56:12.607Z,16.50
2022-10-25T12:58:54.549Z,16.50
2022-10-25T13:01:26.885Z,16.80
2022-10-25T13:04:05.529Z,17.20
2022-10-25T13:06:38.718Z,17.60
2022-10-25T13:09:13.115Z,17.90
2022-10-25T13:11:43.859Z,17.70
2022-10-25T13:14:36.149Z,17.10
2022-10-25T13:17:18.397Z,16.70
2022-10-25T13:19:54.656Z,16.60
2022-10-25T13:22:35.654Z,16.90
2022-10-25T13:25:30.791Z,16.80
2022-10-25T13:28:15.877Z,17.20
2022-10-25T13:30:44.142Z,17.10
2022-10-25T13:33:22.505Z,17.20
2022-10-25T13:35:49.374Z,17.00
2022-10-25T13:38:45.692Z,17.10
2022-10-25T13:41:17.871Z,17.00
2022-10-25T13:44:02.780Z,16.70
2022-10-25T13:46:33.652Z,16.60
2022-10-25T13:49:04.769Z,16.80
2022-10-25T13:51:32.973Z,16.90
2022-10-25T13:54:07.147Z,16.70
2022-10-25T13:56:47.672Z,17.10
2022-10-25T13:59:57.655Z,17.10
2022-10-25T14:02:24.635Z,17.30
2022-10-25T14:04:51.627Z,17.40
2022-10-25T14:07:44.945Z,17.10
2022-10-25T14:10:35.085Z,16.60
2022-10-25T14:13:14.469Z,16.10
2022-10-25T14:15:52.404Z,15.90
2022-10-25T14:18:23.802Z,15.80
2022-10-25T14:20:56.700Z,16.00
2022-10-25T14:23:30.216Z,16.20
2022-10-25T14:26:00.518Z,16.10
2022-10-25T14:28:29.932Z,16.10
2022-10-25T14:31:01.622Z,16.20
2022-10-25T14:33:32.470Z,16.50
2022-10-25T14:36:06.002Z,17.00
2022-10-25T14:38:48.824Z,17.00
2022-10-25T14:41:21.386Z,16.80
2022-10-25T14:43:48.254Z,16.50
2022-10-25T14:46:17.453Z,16.40
2022-10-25T14:48:49.192Z,16.40
2022-10-25T14:51:22.062Z,16.20
2022-10-25T14:53:54.052Z,16.10
2022-10-25T14:56:38.842Z,15.80
2022-10-25T14:59:15.764Z,15.60
2022-10-25T15:01:55.027Z,15.40
2022-10-25T15:04:40.702Z,15.20
2022-10-25T15:07:18.243Z,15.00
2022-10-25T15:09:50.331Z,14.90
2022-10-25T15:12:24.787Z,14.70
2022-10-25T15:14:53.710Z,14.70
2022-10-25T15:17:30.539Z,14.60
2022-10-25T15:20:04.989Z,14.50
2022-10-25T15:22:37.948Z,14.40
2022-10-25T15:25:23.413Z,14.30
2022-10-25T15:27:52.021Z,14.20
2022-10-25T15:30:55.576Z,14.10
2022-10-25T15:33:26.994Z,14.10
2022-10-25T15:36:02.518Z,14.00
2022-10-25T15:39:05.545Z,13.90
2022-10-25T15:41:22.647Z,13.90
2022-10-25T15:43:49.759Z,13.80
2022-10-25T15:46:23.982Z,13.80
2022-10-25T15:48:51.004Z,13.80
2022-10-25T15:51:18.122Z,13.80
2022-10-25T15:53:45.042Z,13.70
2022-10-25T15:56:15.339Z,13.70
2022-10-25T15:58:42.304Z,13.60
2022-10-25T16:01:10.103Z,13.50
2022-10-25T16:03:37.339Z,13.50
2022-10-25T16:06:04.405Z,13.30
2022-10-25T16:08:31.314Z,13.10
2022-10-25T16:10:59.028Z,12.90
2022-10-25T16:13:37.813Z,12.80
2022-10-25T16:16:21.844Z,12.80
2022-10-25T16:18:53.830Z,12.80
2022-10-25T16:21:22.150Z,12.60
2022-10-25T16:23:49.577Z,12.40
2022-10-25T16:26:33.675Z,12.20
2022-10-25T16:29:00.592Z,12.10
2022-10-25T16:31:27.450Z,11.90
2022-10-25T16:33:54.772Z,11.80
2022-10-25T16:36:21.611Z,11.60
2022-10-25T16:38:48.707Z,11.50
2022-10-25T16:41:29.325Z,11.40
2022-10-25T16:43:59.847Z,11.40
2022-10-25T16:46:27.012Z,11.50
2022-10-25T16:48:55.900Z,11.60
2022-10-25T16:51:25.820Z,11.60
2022-10-25T16:53:52.940Z,11.70
2022-10-25T16:56:19.967Z,11.70
2022-10-25T16:58:46.822Z,11.70
2022-10-25T17:01:34.432Z,11.60
2022-10-25T17:04:03.258Z,11.40
2022-10-25T17:06:45.418Z,11.40
2022-10-25T17:09:12.346Z,11.60
2022-10-25T17:11:39.335Z,11.70
2022-10-25T17:14:06.541Z,11.70
2022-10-25T17:16:33.524Z,11.50
2022-10-25T17:19:00.779Z,11.50
2022-10-25T17:21:28.414Z,11.50
2022-10-25T17:23:56.143Z,11.30
2022-10-25T17:26:23.004Z,11.30
2022-10-25T17:28:49.855Z,11.40
2022-10-25T17:31:17.201Z,11.30
2022-10-25T17:33:44.230Z,11.20
2022-10-25T17:36:13.555Z,11.30
2022-10-25T17:38:41.417Z,11.30
2022-10-25T17:41:09.164Z,11.30
2022-10-25T17:43:39.876Z,11.30
2022-10-25T17:46:16.787Z,11.10
2022-10-25T17:48:43.859Z,11.10
2022-10-25T17:51:12.985Z,11.20
2022-10-25T17:53:40.175Z,11.20
2022-10-25T17:56:17.337Z,11.00
2022-10-25T17:58:46.572Z,10.90
2022-10-25T18:01:16.260Z,10.70
2022-10-25T18:03:43.175Z,10.60
2022-10-25T18:06:12.763Z,10.50
2022-10-25T18:08:39.814Z,10.50
2022-10-25T18:11:11.479Z,10.60
2022-10-25T18:13:40.576Z,10.70
2022-10-25T18:16:11.577Z,10.80
2022-10-25T18:18:38.957Z,10.70
2022-10-25T18:21:14.260Z,10.70
2022-10-25T18:23:41.867Z,10.70
2022-10-25T18:26:11.130Z,10.70
2022-10-25T18:28:38.512Z,10.80
2022-10-25T18:31:10.779Z,10.80
2022-10-25T18:33:39.701Z,10.70
2022-10-25T18:36:09.921Z,10.80
2022-10-25T18:38:36.892Z,10.80
2022-10-25T18:41:19.824Z,10.80
2022-10-25T18:43:47.118Z,10.80
2022-10-25T18:46:14.668Z,10.90
2022-10-25T18:48:42.149Z,10.70
2022-10-25T18:51:13.772Z,10.70
2022-10-25T18:53:40.714Z,10.90
2022-10-25T18:56:13.019Z,11.10
2022-10-25T18:58:41.394Z,11.20
2022-10-25T19:01:13.866Z,11.10
2022-10-25T19:03:41.237Z,10.80
2022-10-25T19:06:08.873Z,10.80
2022-10-25T19:08:37.076Z,10.80
2022-10-25T19:11:12.335Z,10.80
2022-10-25T19:13:40.099Z,10.80
2022-10-25T19:16:07.549Z,10.80
2022-10-25T19:18:35.397Z,10.80
2022-10-25T19:21:08.494Z,10.80
2022-10-25T19:23:36.025Z,10.80
2022-10-25T19:26:08.846Z,10.80
2022-10-25T19:28:36.048Z,10.90
2022-10-25T19:31:11.589Z,10.90
2022-10-25T19:33:38.929Z,10.90
2022-10-25T19:36:10.911Z,11.00
2022-10-25T19:38:38.966Z,10.90
2022-10-25T19:41:09.472Z,11.00
2022-10-25T19:43:36.587Z,10.90
2022-10-25T19:46:05.398Z,10.90
2022-10-25T19:48:32.595Z,10.90
2022-10-25T19:51:11.268Z,10.80
2022-10-25T19:53:38.652Z,10.90
2022-10-25T19:56:14.212Z,10.80
2022-10-25T19:58:41.559Z,10.70
2022-10-25T20:01:15.948Z,10.70
2022-10-25T20:03:44.318Z,10.70
2022-10-25T20:06:17.565Z,10.80
2022-10-25T20:08:49.812Z,10.80
2022-10-25T20:11:17.769Z,10.80
2022-10-25T20:13:45.360Z,10.80
2022-10-25T20:16:13.897Z,10.80
2022-10-25T20:18:42.424Z,10.80
2022-10-25T20:21:12.455Z,10.90
2022-10-25T20:23:40.537Z,10.90
2022-10-25T20:26:16.318Z,10.90
2022-10-25T20:28:44.047Z,10.90
2022-10-25T20:31:11.759Z,10.90
2022-10-25T20:33:39.210Z,10.90
2022-10-25T20:36:08.290Z,10.90
2022-10-25T20:38:36.149Z,10.70
2022-10-25T20:41:11.462Z,10.60
2022-10-25T20:43:39.389Z,10.60
2022-10-25T20:46:07.882Z,10.50
2022-10-25T20:48:35.252Z,10.40
2022-10-25T20:51:05.404Z,10.30
2022-10-25T20:53:35.447Z,10.10
2022-10-25T20:56:02.402Z,10.00
2022-10-25T20:58:29.445Z,9.90
2022-10-25T21:00:57.672Z,9.90
2022-10-25T21:03:26.620Z,10.10
2022-10-25T21:05:57.915Z,10.30
2022-10-25T21:08:25.359Z,10.50
2022-10-25T21:11:00.480Z,10.60
2022-10-25T21:13:32.151Z,10.60
2022-10-25T21:16:04.025Z,10.60
2022-10-25T21:18:30.860Z,10.70
2022-10-25T21:21:01.548Z,10.70
2022-10-25T21:23:28.740Z,10.70
2022-10-25T21:26:08.288Z,10.80
2022-10-25T21:28:40.235Z,10.90
2022-10-25T21:31:10.126Z,10.80
2022-10-25T21:33:37.626Z,10.80
2022-10-25T21:36:10.890Z,10.80
2022-10-25T21:38:38.299Z,10.80
2022-10-25T21:41:12.466Z,10.80
2022-10-25T21:43:44.615Z,10.80
2022-10-25T21:46:12.263Z,10.60
2022-10-25T21:48:39.186Z,10.50
2022-10-25T21:51:06.402Z,10.40
2022-10-25T21:53:33.598Z,10.40
2022-10-25T21:56:18.268Z,10.40
2022-10-25T21:58:47.376Z,10.30
2022-10-25T22:01:16.817Z,10.30
2022-10-25T22:03:43.866Z,10.20
2022-10-25T22:06:12.889Z,10.10
2022-10-25T22:08:39.909Z,10.10
2022-10-25T22:11:12.574Z,10.00
2022-10-25T22:13:39.822Z,9.90
2022-10-25T22:16:09.770Z,9.90
2022-10-25T22:18:37.262Z,9.80
2022-10-25T22:21:07.278Z,9.70
2022-10-25T22:23:34.863Z,9.60
2022-10-25T22:26:05.285Z,9.60
2022-10-25T22:28:35.417Z,9.50
2022-10-25T22:31:11.173Z,9.40
2022-10-25T22:33:38.753Z,9.40
2022-10-25T22:36:08.357Z,9.40
2022-10-25T22:38:35.728Z,9.50
2022-10-25T22:41:05.943Z,9.40
2022-10-25T22:43:35.580Z,9.50
2022-10-25T22:46:04.551Z,9.40
2022-10-25T22:48:36.941Z,9.40
2022-10-25T22:51:04.605Z,9.40
2022-10-25T22:53:32.115Z,9.50
2022-10-25T22:56:01.850Z,9.50
2022-10-25T22:58:32.550Z,9.50
2022-10-25T23:01:14.344Z,9.50
2022-10-25T23:03:43.869Z,9.50
2022-10-25T23:06:16.499Z,9.40
2022-10-25T23:08:43.910Z,9.30
2022-10-25T23:11:15.589Z,9.20
2022-10-25T23:13:43.161Z,9.20
2022-10-25T23:16:11.263Z,9.10
2022-10-25T23:18:38.988Z,9.10
2022-10-25T23:21:09.851Z,9.10
2022-10-25T23:23:38.788Z,9.00
2022-10-25T23:26:12.717Z,9.00
2022-10-25T23:28:39.567Z,9.00
2022-10-25T23:31:08.871Z,9.00
2022-10-25T23:33:36.316Z,9.10
2022-10-25T23:36:09.447Z,9.20
2022-10-25T23:38:36.839Z,9.30
2022-10-25T23:41:04.674Z,9.20
2022-10-25T23:43:31.710Z,9.30
2022-10-25T23:45:58.870Z,9.30
2022-10-25T23:48:25.783Z,9.20
2022-10-25T23:50:57.433Z,9.20
2022-10-25T23:53:24.747Z,9.30
2022-10-25T23:55:52.005Z,9.20
2022-10-25T23:58:19.133Z,9.30
